Weather at Firebaugh Airport

Public forecast

Using degrees Fahrenheit for public forecast. Weather courtesy of forecast.io.

Closest aviation weather report (METAR) to Firebaugh Airport

Closest report is Madera Municipal Airport, 18.6 nm (34.4 km) ENE. Retrieved 2020/10/25 03:53 UTC (1 hour ago):

KMAE 250353Z AUTO 00000KT 10SM CLR 14/10 A2988 RMK AO2 SLP118 T01440100

Closest aviation forecast (TAF) to Firebaugh Airport

Closest forecast is Merced Regional Macready Field, 25.6 nm (47.4 km) N. Retrieved 2020-10-25 00:22 UTC (5 hours ago):

TAF KMCE 242320Z 2500/2524 32007KT P6SM FEW250 FM250200 VRB05KT P6SM FEW250 FM251700 33007KT P6SM SCT180